createdAt,value
2018-12-08T00:00:52.735Z,996.66
2018-12-08T00:01:52.708Z,996.64
2018-12-08T00:02:52.686Z,996.61
2018-12-08T00:03:52.662Z,996.68
2018-12-08T00:04:52.634Z,996.65
2018-12-08T00:05:52.611Z,996.66
2018-12-08T00:06:52.584Z,996.74
2018-12-08T00:07:52.560Z,996.74
2018-12-08T00:08:52.538Z,996.64
2018-12-08T00:09:52.510Z,996.62
2018-12-08T00:10:52.484Z,996.72
2018-12-08T00:11:52.462Z,996.63
2018-12-08T00:12:52.444Z,996.65
2018-12-08T00:13:52.410Z,996.65
2018-12-08T00:14:52.385Z,996.65
2018-12-08T00:15:52.361Z,996.64
2018-12-08T00:16:52.340Z,996.69
2018-12-08T00:17:52.310Z,996.74
2018-12-08T00:18:52.285Z,996.83
2018-12-08T00:19:52.260Z,996.79
2018-12-08T00:20:52.235Z,996.69
2018-12-08T00:21:52.213Z,996.87
2018-12-08T00:22:52.185Z,996.83
2018-12-08T00:23:52.161Z,996.80
2018-12-08T00:24:52.139Z,996.77
2018-12-08T00:25:52.111Z,996.78
2018-12-08T00:26:52.089Z,996.84
2018-12-08T00:27:52.071Z,996.74
2018-12-08T00:28:52.037Z,996.74
2018-12-08T00:29:52.011Z,996.68
2018-12-08T00:30:51.985Z,996.80
2018-12-08T00:31:51.962Z,996.79
2018-12-08T00:32:51.937Z,996.76
2018-12-08T00:33:51.911Z,996.93
2018-12-08T00:34:51.886Z,996.78
2018-12-08T00:35:51.875Z,996.76
2018-12-08T00:36:51.837Z,996.76
2018-12-08T00:37:51.812Z,996.68
2018-12-08T00:38:51.786Z,996.69
2018-12-08T00:39:51.762Z,997.14
2018-12-08T00:40:51.738Z,996.79
2018-12-08T00:41:51.711Z,996.87
2018-12-08T00:42:51.775Z,996.93
2018-12-08T00:43:51.675Z,996.71
2018-12-08T00:44:51.638Z,996.88
2018-12-08T00:45:51.613Z,996.82
2018-12-08T00:46:51.592Z,996.74
2018-12-08T00:47:51.571Z,996.82
2018-12-08T00:48:51.538Z,996.88
2018-12-08T00:49:51.513Z,996.79
2018-12-08T00:50:51.487Z,996.88
2018-12-08T00:51:51.463Z,996.81
2018-12-08T00:52:51.442Z,996.85
2018-12-08T00:53:51.413Z,996.74
2018-12-08T00:54:53.077Z,996.83
2018-12-08T00:55:51.363Z,996.78
2018-12-08T00:56:51.340Z,996.75
2018-12-08T00:57:51.320Z,996.77
2018-12-08T00:58:51.292Z,996.76
2018-12-08T00:59:51.267Z,996.72
2018-12-08T01:00:51.242Z,996.78
2018-12-08T01:01:51.213Z,996.74
2018-12-08T01:02:51.192Z,996.79
2018-12-08T01:03:51.163Z,996.77
2018-12-08T01:04:51.138Z,996.76
2018-12-08T01:05:51.112Z,996.78
2018-12-08T01:06:51.088Z,996.66
2018-12-08T01:07:51.063Z,996.66
2018-12-08T01:08:51.038Z,996.77
2018-12-08T01:09:51.012Z,996.65
2018-12-08T01:10:50.987Z,996.66
2018-12-08T01:11:50.969Z,996.62
2018-12-08T01:12:50.939Z,996.77
2018-12-08T01:13:50.914Z,996.73
2018-12-08T01:14:50.886Z,996.68
2018-12-08T01:15:50.862Z,996.75
2018-12-08T01:16:50.837Z,996.77
2018-12-08T01:17:50.811Z,996.77
2018-12-08T01:18:50.786Z,996.75
2018-12-08T01:19:50.761Z,996.80
2018-12-08T01:20:50.736Z,996.74
2018-12-08T01:21:50.711Z,996.76
2018-12-08T01:22:50.690Z,996.78
2018-12-08T01:23:50.665Z,996.67
2018-12-08T01:24:50.638Z,996.75
2018-12-08T01:25:50.609Z,996.71
2018-12-08T01:26:50.587Z,996.74
2018-12-08T01:27:50.565Z,996.70
2018-12-08T01:28:50.537Z,996.75
2018-12-08T01:29:50.512Z,996.63
2018-12-08T01:30:50.501Z,996.74
2018-12-08T01:31:50.461Z,996.76
2018-12-08T01:32:50.433Z,996.82
2018-12-08T01:33:50.408Z,996.82
2018-12-08T01:34:50.383Z,996.85
2018-12-08T01:35:50.365Z,996.89
2018-12-08T01:36:50.340Z,996.89
2018-12-08T01:37:50.313Z,996.91
2018-12-08T01:38:50.287Z,996.87
2018-12-08T01:39:50.261Z,996.83
2018-12-08T01:40:50.236Z,996.88
2018-12-08T01:41:50.213Z,996.91
2018-12-08T01:42:50.256Z,996.96
2018-12-08T01:43:50.164Z,996.88
2018-12-08T01:44:50.136Z,996.88
2018-12-08T01:45:50.113Z,996.85
2018-12-08T01:46:50.084Z,996.95
2018-12-08T01:47:50.059Z,996.88
2018-12-08T01:48:50.033Z,996.94
2018-12-08T01:49:50.007Z,996.92
2018-12-08T01:50:49.985Z,996.93
2018-12-08T01:51:49.957Z,996.97
2018-12-08T01:52:49.931Z,997.02
2018-12-08T01:53:49.905Z,997.04
2018-12-08T01:54:49.882Z,996.98
2018-12-08T01:55:49.855Z,997.06
2018-12-08T01:56:49.832Z,997.09
2018-12-08T01:57:49.805Z,997.01
2018-12-08T01:58:49.784Z,997.03
2018-12-08T01:59:49.755Z,996.97
2018-12-08T02:00:49.730Z,997.05
2018-12-08T02:01:49.705Z,996.95
2018-12-08T02:02:49.680Z,997.03
2018-12-08T02:03:49.656Z,996.90
2018-12-08T02:04:49.631Z,997.02
2018-12-08T02:05:49.606Z,996.96
2018-12-08T02:06:49.577Z,996.99
2018-12-08T02:07:49.552Z,997.12
2018-12-08T02:08:49.527Z,997.10
2018-12-08T02:09:49.501Z,996.98
2018-12-08T02:10:49.484Z,997.11
2018-12-08T02:11:49.453Z,997.06
2018-12-08T02:12:49.426Z,996.98
2018-12-08T02:13:49.401Z,997.15
2018-12-08T02:14:49.374Z,997.02
2018-12-08T02:15:49.350Z,997.10
2018-12-08T02:16:49.324Z,997.10
2018-12-08T02:17:49.299Z,997.09
2018-12-08T02:18:49.373Z,997.17
2018-12-08T02:19:49.347Z,997.23
2018-12-08T02:20:49.223Z,997.17
2018-12-08T02:21:49.198Z,997.04
2018-12-08T02:22:49.174Z,997.07
2018-12-08T02:23:49.148Z,997.04
2018-12-08T02:24:49.126Z,997.04
2018-12-08T02:25:49.097Z,997.00
2018-12-08T02:26:49.079Z,996.85
2018-12-08T02:27:49.048Z,996.93
2018-12-08T02:28:49.035Z,996.79
2018-12-08T02:29:48.995Z,996.74
2018-12-08T02:30:48.974Z,996.80
2018-12-08T02:31:48.946Z,996.80
2018-12-08T02:32:48.923Z,996.76
2018-12-08T02:33:48.898Z,996.77
2018-12-08T02:34:48.870Z,996.76
2018-12-08T02:35:48.847Z,996.76
2018-12-08T02:36:48.827Z,996.66
2018-12-08T02:37:48.794Z,996.66
2018-12-08T02:38:48.771Z,996.62
2018-12-08T02:39:48.747Z,996.65
2018-12-08T02:40:48.722Z,996.68
2018-12-08T02:41:48.696Z,996.69
2018-12-08T02:42:48.667Z,996.58
2018-12-08T02:43:48.644Z,996.58
2018-12-08T02:44:48.618Z,996.60
2018-12-08T02:45:48.593Z,996.55
2018-12-08T02:46:48.567Z,996.85
2018-12-08T02:47:48.543Z,996.60
2018-12-08T02:48:48.518Z,996.67
2018-12-08T02:49:48.490Z,996.51
2018-12-08T02:50:48.470Z,996.57
2018-12-08T02:51:48.440Z,996.62
2018-12-08T02:52:48.418Z,996.63
2018-12-08T02:53:48.390Z,996.69
2018-12-08T02:54:48.369Z,996.67
2018-12-08T02:55:48.341Z,996.67
2018-12-08T02:56:48.315Z,996.65
2018-12-08T02:57:48.288Z,996.64
2018-12-08T02:58:48.263Z,996.72
2018-12-08T02:59:48.239Z,996.53
2018-12-08T03:00:48.239Z,996.58
2018-12-08T03:01:48.191Z,996.49
2018-12-08T03:02:48.161Z,996.46
2018-12-08T03:03:48.136Z,996.44
2018-12-08T03:04:48.113Z,996.45
2018-12-08T03:05:48.089Z,996.49
2018-12-08T03:06:48.060Z,996.56
2018-12-08T03:07:48.035Z,996.44
2018-12-08T03:08:48.016Z,996.39
2018-12-08T03:09:47.984Z,996.35
2018-12-08T03:10:47.965Z,996.39
2018-12-08T03:11:47.935Z,996.26
2018-12-08T03:12:47.910Z,996.32
2018-12-08T03:13:47.882Z,996.31
2018-12-08T03:14:47.858Z,996.24
2018-12-08T03:15:47.836Z,996.24
2018-12-08T03:16:47.810Z,996.22
2018-12-08T03:17:47.782Z,996.28
2018-12-08T03:18:47.756Z,996.32
2018-12-08T03:19:47.732Z,996.29
2018-12-08T03:20:47.708Z,996.25
2018-12-08T03:21:47.682Z,996.18
2018-12-08T03:22:47.661Z,996.27
2018-12-08T03:23:47.633Z,996.22
2018-12-08T03:24:47.606Z,996.21
2018-12-08T03:25:47.580Z,996.24
2018-12-08T03:26:47.568Z,996.25
2018-12-08T03:27:47.534Z,996.14
2018-12-08T03:28:47.506Z,996.12
2018-12-08T03:29:47.479Z,996.13
2018-12-08T03:30:47.455Z,996.08
2018-12-08T03:31:47.431Z,996.02
2018-12-08T03:32:47.406Z,995.96
2018-12-08T03:33:47.381Z,996.06
2018-12-08T03:34:47.357Z,996.11
2018-12-08T03:35:47.330Z,996.09
2018-12-08T03:36:47.312Z,995.99
2018-12-08T03:37:47.283Z,996.05
2018-12-08T03:38:47.257Z,996.00
2018-12-08T03:39:47.229Z,996.04
2018-12-08T03:40:47.211Z,996.03
2018-12-08T03:41:47.178Z,995.97
2018-12-08T03:42:47.155Z,995.98
2018-12-08T03:43:47.129Z,995.95
2018-12-08T03:44:47.107Z,996.02
2018-12-08T03:45:47.079Z,995.93
2018-12-08T03:46:47.055Z,996.02
2018-12-08T03:47:47.032Z,995.99
2018-12-08T03:48:47.005Z,996.02
2018-12-08T03:49:46.986Z,996.01
2018-12-08T03:50:46.955Z,995.97
2018-12-08T03:51:46.930Z,995.98
2018-12-08T03:52:46.906Z,996.04
2018-12-08T03:53:46.882Z,996.02
2018-12-08T03:54:46.854Z,996.05
2018-12-08T03:55:46.830Z,995.95
2018-12-08T03:56:46.808Z,995.98
2018-12-08T03:57:46.779Z,995.99
2018-12-08T03:58:46.756Z,995.92
2018-12-08T03:59:46.729Z,995.94
2018-12-08T04:00:46.708Z,995.93
2018-12-08T04:01:46.681Z,995.89
2018-12-08T04:02:46.664Z,995.86
2018-12-08T04:03:46.630Z,995.92
2018-12-08T04:04:46.607Z,995.73
2018-12-08T04:05:46.581Z,995.82
2018-12-08T04:06:46.557Z,995.78
2018-12-08T04:07:46.533Z,995.83
2018-12-08T04:08:46.506Z,995.75
2018-12-08T04:09:46.482Z,995.86
2018-12-08T04:10:46.457Z,995.77
2018-12-08T04:11:46.435Z,995.85
2018-12-08T04:12:46.407Z,995.82
2018-12-08T04:13:46.382Z,995.82
2018-12-08T04:14:46.360Z,995.80
2018-12-08T04:15:46.334Z,995.84
2018-12-08T04:16:46.313Z,995.80
2018-12-08T04:17:46.283Z,995.85
2018-12-08T04:18:46.257Z,995.73
2018-12-08T04:19:46.235Z,995.81
2018-12-08T04:20:46.210Z,995.84
2018-12-08T04:21:46.186Z,995.72
2018-12-08T04:22:46.180Z,995.79
2018-12-08T04:23:46.134Z,995.74
2018-12-08T04:24:46.113Z,995.83
2018-12-08T04:25:46.087Z,995.78
2018-12-08T04:26:46.062Z,995.77
2018-12-08T04:27:46.037Z,995.67
2018-12-08T04:28:46.010Z,995.73
2018-12-08T04:29:45.985Z,995.65
2018-12-08T04:30:45.960Z,995.74
2018-12-08T04:31:45.936Z,995.65
2018-12-08T04:32:45.913Z,995.71
2018-12-08T04:33:45.886Z,995.64
2018-12-08T04:34:45.867Z,995.67
2018-12-08T04:35:45.838Z,995.67
2018-12-08T04:36:45.814Z,995.68
2018-12-08T04:37:45.787Z,995.68
2018-12-08T04:38:45.768Z,995.63
2018-12-08T04:39:45.739Z,995.65
2018-12-08T04:40:45.728Z,995.60
2018-12-08T04:41:45.688Z,995.62
2018-12-08T04:42:45.665Z,995.67
2018-12-08T04:43:45.641Z,995.66
2018-12-08T04:44:45.616Z,995.63
2018-12-08T04:45:45.590Z,995.65
2018-12-08T04:46:45.574Z,995.72
2018-12-08T04:47:45.544Z,995.61
2018-12-08T04:48:45.516Z,995.61
2018-12-08T04:49:45.490Z,995.62
2018-12-08T04:50:45.474Z,995.54
2018-12-08T04:51:45.449Z,995.55
2018-12-08T04:52:45.419Z,995.57
2018-12-08T04:53:45.392Z,995.61
2018-12-08T04:54:45.368Z,995.60
2018-12-08T04:55:45.344Z,995.47
2018-12-08T04:56:45.322Z,995.49
2018-12-08T04:57:45.294Z,995.59
2018-12-08T04:58:45.272Z,995.64
2018-12-08T04:59:45.245Z,995.55
2018-12-08T05:00:45.223Z,995.70
2018-12-08T05:01:45.201Z,995.54
2018-12-08T05:02:45.173Z,995.51
2018-12-08T05:03:45.153Z,995.66
2018-12-08T05:04:45.124Z,995.54
2018-12-08T05:05:45.099Z,995.50
2018-12-08T05:06:45.074Z,995.47
2018-12-08T05:07:45.049Z,995.48
2018-12-08T05:08:45.023Z,995.37
2018-12-08T05:09:44.998Z,995.42
2018-12-08T05:10:44.972Z,995.40
2018-12-08T05:11:44.952Z,995.35
2018-12-08T05:12:44.924Z,995.44
2018-12-08T05:13:44.901Z,995.40
2018-12-08T05:14:44.876Z,995.51
2018-12-08T05:15:44.851Z,995.64
2018-12-08T05:16:44.826Z,995.52
2018-12-08T05:17:44.801Z,995.45
2018-12-08T05:18:44.780Z,995.55
2018-12-08T05:19:44.752Z,995.46
2018-12-08T05:20:44.727Z,995.39
2018-12-08T05:21:44.704Z,995.41
2018-12-08T05:22:44.678Z,995.47
2018-12-08T05:23:44.656Z,995.39
2018-12-08T05:24:44.634Z,995.35
2018-12-08T05:25:44.605Z,995.42
2018-12-08T05:26:44.578Z,995.39
2018-12-08T05:27:44.554Z,995.38
2018-12-08T05:28:44.529Z,995.50
2018-12-08T05:29:44.507Z,995.45
2018-12-08T05:30:44.480Z,995.48
2018-12-08T05:31:44.455Z,995.40
2018-12-08T05:32:44.436Z,995.51
2018-12-08T05:33:44.407Z,995.32
2018-12-08T05:34:44.381Z,995.41
2018-12-08T05:35:44.356Z,995.41
2018-12-08T05:36:44.332Z,995.39
2018-12-08T05:37:44.308Z,995.35
2018-12-08T05:38:44.283Z,995.27
2018-12-08T05:39:44.258Z,995.31
2018-12-08T05:40:44.242Z,995.23
2018-12-08T05:41:44.209Z,995.25
2018-12-08T05:42:44.184Z,995.28
2018-12-08T05:43:44.161Z,995.29
2018-12-08T05:44:44.136Z,995.33
2018-12-08T05:45:44.113Z,995.30
2018-12-08T05:46:44.092Z,995.24
2018-12-08T05:47:44.061Z,995.29
2018-12-08T05:48:44.037Z,995.16
2018-12-08T05:49:44.018Z,995.18
2018-12-08T05:50:43.988Z,995.24
2018-12-08T05:51:43.964Z,995.35
2018-12-08T05:52:43.938Z,995.23
2018-12-08T05:53:43.914Z,995.26
2018-12-08T05:54:43.889Z,995.21
2018-12-08T05:55:43.867Z,995.21
2018-12-08T05:56:43.840Z,995.29
2018-12-08T05:57:43.814Z,995.23
2018-12-08T05:58:43.789Z,995.42
2018-12-08T05:59:43.766Z,995.25
2018-12-08T06:00:43.740Z,995.20
2018-12-08T06:01:43.716Z,995.20
2018-12-08T06:02:43.691Z,995.17
2018-12-08T06:03:43.668Z,995.27
2018-12-08T06:04:43.642Z,995.24
2018-12-08T06:05:43.616Z,995.31
2018-12-08T06:06:43.591Z,995.23
2018-12-08T06:07:43.566Z,995.13
2018-12-08T06:08:43.542Z,995.11
2018-12-08T06:09:43.515Z,995.08
2018-12-08T06:10:43.501Z,995.11
2018-12-08T06:11:43.475Z,995.08
2018-12-08T06:12:43.453Z,995.07
2018-12-08T06:13:43.419Z,995.03
2018-12-08T06:14:43.396Z,995.15
2018-12-08T06:15:43.374Z,995.13
2018-12-08T06:16:43.345Z,995.26
2018-12-08T06:17:43.319Z,995.34
2018-12-08T06:18:43.296Z,995.17
2018-12-08T06:19:43.271Z,995.13
2018-12-08T06:20:43.248Z,995.14
2018-12-08T06:21:43.225Z,995.17
2018-12-08T06:22:43.199Z,995.20
2018-12-08T06:23:43.177Z,995.22
2018-12-08T06:24:43.147Z,995.19
2018-12-08T06:25:43.129Z,995.22
2018-12-08T06:26:43.098Z,995.18
2018-12-08T06:27:43.073Z,995.22
2018-12-08T06:28:43.048Z,995.34
2018-12-08T06:29:43.022Z,995.20
2018-12-08T06:30:43.000Z,995.14
2018-12-08T06:31:42.975Z,995.31
2018-12-08T06:32:42.951Z,995.17
2018-12-08T06:33:42.924Z,995.18
2018-12-08T06:34:42.898Z,995.21
2018-12-08T06:35:42.874Z,995.29
2018-12-08T06:36:42.849Z,995.09
2018-12-08T06:37:42.823Z,995.14
2018-12-08T06:38:42.799Z,995.11
2018-12-08T06:39:42.784Z,995.04
2018-12-08T06:40:42.752Z,995.10
2018-12-08T06:41:42.725Z,995.00
2018-12-08T06:42:42.702Z,995.05
2018-12-08T06:43:42.677Z,995.05
2018-12-08T06:44:42.654Z,995.04
2018-12-08T06:45:42.627Z,994.94
2018-12-08T06:46:42.612Z,995.01
2018-12-08T06:47:42.578Z,994.98
2018-12-08T06:48:42.554Z,994.94
2018-12-08T06:49:42.532Z,994.98
2018-12-08T06:50:42.503Z,994.92
2018-12-08T06:51:42.479Z,994.98
2018-12-08T06:52:42.455Z,994.92
2018-12-08T06:53:42.437Z,994.91
2018-12-08T06:54:42.410Z,994.97
2018-12-08T06:55:42.385Z,994.88
2018-12-08T06:56:42.373Z,994.84
2018-12-08T06:57:42.331Z,994.83
2018-12-08T06:58:42.307Z,994.86
2018-12-08T06:59:42.283Z,994.87
2018-12-08T07:00:42.260Z,994.86
2018-12-08T07:01:42.233Z,994.76
2018-12-08T07:02:42.209Z,994.83
2018-12-08T07:03:42.184Z,994.82
2018-12-08T07:04:42.165Z,994.81
2018-12-08T07:05:42.135Z,994.78
2018-12-08T07:06:42.111Z,994.74
2018-12-08T07:07:42.087Z,994.74
2018-12-08T07:08:42.064Z,994.73
2018-12-08T07:09:42.038Z,994.74
2018-12-08T07:10:42.016Z,994.69
2018-12-08T07:11:41.989Z,994.74
2018-12-08T07:12:41.966Z,994.75
2018-12-08T07:13:41.939Z,994.86
2018-12-08T07:14:41.915Z,994.89
2018-12-08T07:15:41.893Z,994.76
2018-12-08T07:16:41.867Z,994.84
2018-12-08T07:17:41.843Z,994.79
2018-12-08T07:18:41.822Z,994.81
2018-12-08T07:19:41.796Z,994.75
2018-12-08T07:20:41.769Z,994.72
2018-12-08T07:21:41.751Z,994.75
2018-12-08T07:22:41.719Z,994.70
2018-12-08T07:23:41.695Z,994.62
2018-12-08T07:24:41.673Z,994.73
2018-12-08T07:25:41.647Z,994.76
2018-12-08T07:26:41.623Z,994.69
2018-12-08T07:27:41.603Z,994.76
2018-12-08T07:28:41.573Z,994.79
2018-12-08T07:29:41.551Z,994.76
2018-12-08T07:30:41.526Z,994.83
2018-12-08T07:31:41.570Z,994.83
2018-12-08T07:32:41.478Z,994.72
2018-12-08T07:33:41.454Z,994.72
2018-12-08T07:34:41.429Z,994.77
2018-12-08T07:35:41.404Z,994.72
2018-12-08T07:36:41.380Z,994.83
2018-12-08T07:37:41.354Z,994.68
2018-12-08T07:38:41.330Z,994.69
2018-12-08T07:39:41.306Z,994.65
2018-12-08T07:40:41.281Z,994.77
2018-12-08T07:41:41.256Z,994.62
2018-12-08T07:42:41.232Z,994.62
2018-12-08T07:43:41.209Z,994.60
2018-12-08T07:44:41.183Z,994.64
2018-12-08T07:45:41.158Z,994.71
2018-12-08T07:46:41.134Z,994.63
2018-12-08T07:47:41.112Z,994.83
2018-12-08T07:48:41.085Z,994.65
2018-12-08T07:49:41.063Z,994.67
2018-12-08T07:50:41.043Z,994.59
2018-12-08T07:51:41.012Z,994.66
2018-12-08T07:52:40.988Z,994.63
2018-12-08T07:53:40.962Z,994.77
2018-12-08T07:54:40.938Z,994.76
2018-12-08T07:55:40.922Z,994.82
2018-12-08T07:56:40.891Z,994.71
2018-12-08T07:57:40.865Z,994.50
2018-12-08T07:58:40.852Z,994.65
2018-12-08T07:59:40.818Z,994.65
2018-12-08T08:00:40.803Z,994.66
2018-12-08T08:01:40.765Z,994.73
2018-12-08T08:02:40.741Z,994.65
2018-12-08T08:03:40.718Z,994.57
2018-12-08T08:04:40.694Z,994.55
2018-12-08T08:05:40.668Z,994.54
2018-12-08T08:06:40.645Z,994.49
2018-12-08T08:07:40.619Z,994.61
2018-12-08T08:08:40.593Z,994.53
2018-12-08T08:09:40.571Z,994.58
2018-12-08T08:10:40.545Z,994.61
2018-12-08T08:11:40.521Z,994.56
2018-12-08T08:12:40.498Z,994.50
2018-12-08T08:13:40.471Z,994.55
2018-12-08T08:14:40.447Z,994.39
2018-12-08T08:15:40.422Z,994.52
2018-12-08T08:16:40.402Z,994.43
2018-12-08T08:17:40.372Z,994.41
2018-12-08T08:18:40.347Z,994.48
2018-12-08T08:19:40.325Z,994.47
2018-12-08T08:20:40.302Z,994.58
2018-12-08T08:21:40.274Z,994.57
2018-12-08T08:22:40.250Z,994.47
2018-12-08T08:23:40.228Z,994.52
2018-12-08T08:24:40.203Z,994.58
2018-12-08T08:25:40.177Z,994.51
2018-12-08T08:26:40.152Z,994.49
2018-12-08T08:27:40.129Z,994.42
2018-12-08T08:28:40.105Z,994.49
2018-12-08T08:29:40.077Z,994.42
2018-12-08T08:30:40.153Z,994.46
2018-12-08T08:31:40.034Z,994.44
2018-12-08T08:32:40.006Z,994.38
2018-12-08T08:33:39.981Z,994.39
2018-12-08T08:34:39.957Z,994.36
2018-12-08T08:35:39.931Z,994.40
2018-12-08T08:36:39.909Z,994.34
2018-12-08T08:37:39.881Z,994.32
2018-12-08T08:38:39.859Z,994.37
2018-12-08T08:39:39.834Z,994.28
2018-12-08T08:40:39.810Z,994.33
2018-12-08T08:41:39.784Z,994.33
2018-12-08T08:42:39.759Z,994.29
2018-12-08T08:43:39.738Z,994.30
2018-12-08T08:44:39.711Z,994.22
2018-12-08T08:45:39.686Z,994.11
2018-12-08T08:46:39.664Z,994.22
2018-12-08T08:47:39.638Z,994.37
2018-12-08T08:48:39.614Z,994.25
2018-12-08T08:49:39.588Z,994.43
2018-12-08T08:50:39.564Z,994.33
2018-12-08T08:51:39.540Z,994.28
2018-12-08T08:52:39.517Z,994.30
2018-12-08T08:53:39.492Z,994.33
2018-12-08T08:54:39.467Z,994.32
2018-12-08T08:55:39.444Z,994.39
2018-12-08T08:56:39.420Z,994.27
2018-12-08T08:57:39.395Z,994.33
2018-12-08T08:58:39.369Z,994.28
2018-12-08T08:59:39.346Z,994.28
2018-12-08T09:00:39.321Z,994.33
2018-12-08T09:01:39.298Z,994.32
2018-12-08T09:02:39.271Z,994.31
2018-12-08T09:03:39.247Z,994.29
2018-12-08T09:04:39.223Z,994.27
2018-12-08T09:05:39.200Z,994.20
2018-12-08T09:06:39.175Z,994.19
2018-12-08T09:07:39.152Z,994.31
2018-12-08T09:08:39.126Z,994.11
2018-12-08T09:09:39.100Z,994.08
2018-12-08T09:10:39.076Z,993.98
2018-12-08T09:11:39.052Z,994.05
2018-12-08T09:12:39.033Z,993.88
2018-12-08T09:13:39.004Z,993.92
2018-12-08T09:14:38.979Z,993.88
2018-12-08T09:15:38.955Z,993.86
2018-12-08T09:16:38.930Z,993.95
2018-12-08T09:17:38.906Z,993.88
2018-12-08T09:18:38.897Z,993.86
2018-12-08T09:19:38.857Z,993.87
2018-12-08T09:20:38.832Z,993.84
2018-12-08T09:21:38.818Z,993.79
2018-12-08T09:22:38.782Z,993.84
2018-12-08T09:23:38.760Z,993.78
2018-12-08T09:24:38.743Z,993.82
2018-12-08T09:25:38.712Z,993.82
2018-12-08T09:26:38.748Z,993.88
2018-12-08T09:27:38.661Z,993.82
2018-12-08T09:28:38.655Z,993.83
2018-12-08T09:29:38.688Z,993.90
2018-12-08T09:30:38.643Z,993.86
2018-12-08T09:31:38.609Z,993.76
2018-12-08T09:32:38.538Z,993.84
2018-12-08T09:33:38.512Z,993.84
2018-12-08T09:34:38.488Z,993.79
2018-12-08T09:35:38.463Z,993.68
2018-12-08T09:36:38.439Z,993.87
2018-12-08T09:37:38.416Z,993.98
2018-12-08T09:38:38.390Z,993.85
2018-12-08T09:39:38.366Z,993.82
2018-12-08T09:40:38.341Z,993.93
2018-12-08T09:41:38.320Z,993.90
2018-12-08T09:42:38.294Z,994.13
2018-12-08T09:43:38.269Z,993.82
2018-12-08T09:44:38.242Z,993.90
2018-12-08T09:45:41.832Z,993.95
2018-12-08T09:46:38.194Z,994.10
2018-12-08T09:47:38.170Z,994.09
2018-12-08T09:48:38.146Z,994.08
2018-12-08T09:49:38.119Z,994.00
2018-12-08T09:50:38.098Z,994.13
2018-12-08T09:51:38.080Z,994.11
2018-12-08T09:52:38.047Z,994.04
2018-12-08T09:53:38.021Z,994.13
2018-12-08T09:54:37.996Z,994.03
2018-12-08T09:55:37.973Z,994.00
2018-12-08T09:56:37.948Z,994.02
2018-12-08T09:57:37.926Z,994.11
2018-12-08T09:58:37.900Z,994.03
2018-12-08T09:59:37.876Z,994.05
2018-12-08T10:00:37.852Z,994.07
2018-12-08T10:01:37.825Z,994.06
2018-12-08T10:02:37.798Z,994.11
2018-12-08T10:03:37.776Z,994.00
2018-12-08T10:04:37.750Z,993.97
2018-12-08T10:05:37.725Z,993.98
2018-12-08T10:06:37.703Z,994.03
2018-12-08T10:07:37.678Z,994.06
2018-12-08T10:08:37.652Z,993.90
2018-12-08T10:09:37.626Z,993.87
2018-12-08T10:10:37.608Z,994.00
2018-12-08T10:11:37.579Z,993.97
2018-12-08T10:12:37.554Z,993.94
2018-12-08T10:13:37.526Z,993.91
2018-12-08T10:14:37.506Z,993.90
2018-12-08T10:15:37.477Z,993.96
2018-12-08T10:16:37.453Z,993.84
2018-12-08T10:17:37.427Z,993.93
2018-12-08T10:18:37.408Z,993.98
2018-12-08T10:19:37.380Z,993.95
2018-12-08T10:20:37.416Z,993.95
2018-12-08T10:21:37.328Z,994.02
2018-12-08T10:22:37.304Z,993.93
2018-12-08T10:23:37.331Z,993.85
2018-12-08T10:24:37.255Z,993.89
2018-12-08T10:25:37.228Z,994.00
2018-12-08T10:26:37.205Z,993.98
2018-12-08T10:27:37.183Z,993.86
2018-12-08T10:28:37.155Z,993.89
2018-12-08T10:29:37.130Z,993.97
2018-12-08T10:30:37.107Z,993.90
2018-12-08T10:31:37.081Z,993.86
2018-12-08T10:32:37.058Z,993.93
2018-12-08T10:33:37.031Z,993.91
2018-12-08T10:34:37.007Z,993.85
2018-12-08T10:35:36.983Z,993.94
2018-12-08T10:36:36.961Z,993.79
2018-12-08T10:37:36.933Z,993.98
2018-12-08T10:38:36.909Z,993.84
2018-12-08T10:39:36.888Z,993.85
2018-12-08T10:40:36.860Z,993.89
2018-12-08T10:41:36.837Z,993.93
2018-12-08T10:42:36.809Z,993.92
2018-12-08T10:43:36.790Z,993.99
2018-12-08T10:44:36.761Z,993.98
2018-12-08T10:45:36.736Z,994.03
2018-12-08T10:46:36.711Z,994.00
2018-12-08T10:47:36.688Z,994.09
2018-12-08T10:48:36.663Z,994.01
2018-12-08T10:49:36.637Z,994.03
2018-12-08T10:50:36.617Z,994.02
2018-12-08T10:51:36.589Z,994.01
2018-12-08T10:52:36.567Z,993.93
2018-12-08T10:53:36.538Z,993.92
2018-12-08T10:54:36.522Z,993.87
2018-12-08T10:55:36.491Z,993.92
2018-12-08T10:56:36.468Z,993.86
2018-12-08T10:57:36.442Z,994.01
2018-12-08T10:58:36.421Z,993.87
2018-12-08T10:59:36.394Z,993.90
2018-12-08T11:00:36.378Z,993.93
2018-12-08T11:01:36.344Z,993.92
2018-12-08T11:02:36.326Z,993.92
2018-12-08T11:03:36.296Z,993.92
2018-12-08T11:04:36.273Z,993.94
2018-12-08T11:05:36.249Z,993.92
2018-12-08T11:06:36.223Z,993.98
2018-12-08T11:07:36.200Z,993.95
2018-12-08T11:08:36.174Z,993.93
2018-12-08T11:09:36.149Z,993.89
2018-12-08T11:10:36.131Z,994.02
2018-12-08T11:11:36.102Z,993.90
2018-12-08T11:12:37.522Z,993.98
2018-12-08T11:13:36.053Z,993.93
2018-12-08T11:14:36.032Z,993.88
2018-12-08T11:15:36.008Z,993.98
2018-12-08T11:16:35.980Z,993.95
2018-12-08T11:17:35.955Z,993.95
2018-12-08T11:18:35.934Z,993.93
2018-12-08T11:19:35.910Z,993.90
2018-12-08T11:20:35.888Z,993.92
2018-12-08T11:21:35.859Z,993.84
2018-12-08T11:22:35.836Z,993.96
2018-12-08T11:23:35.811Z,994.04
2018-12-08T11:24:35.825Z,993.90
2018-12-08T11:25:35.763Z,993.91
2018-12-08T11:26:35.739Z,993.97
2018-12-08T11:27:35.716Z,994.01
2018-12-08T11:28:35.820Z,994.15
2018-12-08T11:29:35.666Z,994.06
2018-12-08T11:32:40.944Z,994.03
2018-12-08T11:33:40.889Z,994.00
2018-12-08T11:35:34.253Z,994.04
2018-12-08T11:36:34.197Z,994.13
2018-12-08T11:38:28.536Z,994.14
2018-12-08T11:39:28.498Z,994.06
2018-12-08T11:41:22.894Z,994.24
2018-12-08T11:42:22.792Z,994.18
2018-12-08T11:44:16.130Z,994.24
2018-12-08T11:45:16.097Z,994.11
2018-12-08T11:47:09.449Z,994.06
2018-12-08T11:48:09.395Z,994.11
2018-12-08T11:50:02.759Z,994.09
2018-12-08T11:51:02.704Z,994.05
2018-12-08T11:52:57.098Z,994.02
2018-12-08T11:53:57.063Z,994.12
2018-12-08T11:55:50.417Z,994.09
2018-12-08T11:56:50.394Z,994.09
2018-12-08T11:58:44.817Z,994.12
2018-12-08T11:59:44.734Z,994.12
2018-12-08T12:01:38.090Z,993.98
2018-12-08T12:02:38.037Z,994.00
2018-12-08T12:04:31.369Z,994.05
2018-12-08T12:05:31.403Z,994.13
2018-12-08T12:07:25.716Z,994.00
2018-12-08T12:08:25.659Z,993.99
2018-12-08T12:10:19.015Z,993.99
2018-12-08T12:11:18.964Z,994.02
2018-12-08T12:13:13.311Z,993.91
2018-12-08T12:14:13.279Z,993.97
2018-12-08T12:16:06.700Z,994.03
2018-12-08T12:17:06.583Z,993.98
2018-12-08T12:18:06.559Z,993.95
2018-12-08T12:19:06.611Z,994.02
2018-12-08T12:20:06.546Z,993.98
2018-12-08T12:21:06.490Z,994.03
2018-12-08T12:22:06.472Z,994.00
2018-12-08T12:23:06.529Z,994.00
2018-12-08T12:24:06.440Z,994.08
2018-12-08T12:25:06.395Z,994.02
2018-12-08T12:26:06.378Z,994.16
2018-12-08T12:27:06.349Z,994.01
2018-12-08T12:28:06.437Z,993.93
2018-12-08T12:29:06.302Z,993.92
2018-12-08T12:30:06.278Z,993.95
2018-12-08T12:31:06.257Z,993.93
2018-12-08T12:32:06.230Z,993.96
2018-12-08T12:33:06.212Z,994.17
2018-12-08T12:34:06.185Z,994.00
2018-12-08T12:35:06.164Z,993.96
2018-12-08T12:36:06.141Z,993.98
2018-12-08T12:37:06.115Z,993.87
2018-12-08T12:38:06.090Z,994.19
2018-12-08T12:39:06.067Z,993.83
2018-12-08T12:40:06.042Z,993.91
2018-12-08T12:41:06.021Z,993.86
2018-12-08T12:42:06.003Z,993.95
2018-12-08T12:43:05.973Z,994.03
2018-12-08T12:44:05.950Z,993.87